sensor_id;sensor_type;location;lat;lon;timestamp;temperature;humidity
18690;DHT22;9782;52.930;15.562;2023-07-29T17:47:00;19.60;99.90
18690;DHT22;9782;52.930;15.562;2023-07-29T17:49:47;19.50;99.90
18690;DHT22;9782;52.930;15.562;2023-07-29T17:52:14;19.60;99.90
18690;DHT22;9782;52.930;15.562;2023-07-29T17:54:41;19.80;99.90
18690;DHT22;9782;52.930;15.562;2023-07-29T17:57:08;19.80;99.90
18690;DHT22;9782;52.930;15.562;2023-07-29T17:59:35;19.90;99.90
18690;DHT22;9782;52.930;15.562;2023-07-29T18:02:03;20.10;99.90
18690;DHT22;9782;52.930;15.562;2023-07-29T18:04:30;20.00;99.90
18690;DHT22;9782;52.930;15.562;2023-07-29T18:06:57;20.00;99.90
18690;DHT22;9782;52.930;15.562;2023-07-29T18:09:24;20.00;99.90
18690;DHT22;9782;52.930;15.562;2023-07-29T18:11:52;20.00;99.90
18690;DHT22;9782;52.930;15.562;2023-07-29T18:14:21;19.90;99.90
18690;DHT22;9782;52.930;15.562;2023-07-29T18:16:48;19.90;99.90
18690;DHT22;9782;52.930;15.562;2023-07-29T18:19:16;19.80;99.90
18690;DHT22;9782;52.930;15.562;2023-07-29T18:21:46;19.80;99.90
18690;DHT22;9782;52.930;15.562;2023-07-29T18:24:13;19.80;99.90
18690;DHT22;9782;52.930;15.562;2023-07-29T18:26:40;19.80;99.90
18690;DHT22;9782;52.930;15.562;2023-07-29T18:29:07;19.90;99.90
18690;DHT22;9782;52.930;15.562;2023-07-29T18:31:33;19.90;99.90
18690;DHT22;9782;52.930;15.562;2023-07-29T18:34:00;19.90;99.90
18690;DHT22;9782;52.930;15.562;2023-07-29T18:36:28;19.90;99.90
18690;DHT22;9782;52.930;15.562;2023-07-29T18:38:56;20.00;99.90
18690;DHT22;9782;52.930;15.562;2023-07-29T18:41:23;20.00;99.90
18690;DHT22;9782;52.930;15.562;2023-07-29T18:43:51;20.00;99.90
18690;DHT22;9782;52.930;15.562;2023-07-29T18:46:23;20.00;99.90
18690;DHT22;9782;52.930;15.562;2023-07-29T18:48:53;20.00;99.90
18690;DHT22;9782;52.930;15.562;2023-07-29T18:51:20;19.90;99.90
18690;DHT22;9782;52.930;15.562;2023-07-29T18:53:48;19.80;99.90
18690;DHT22;9782;52.930;15.562;2023-07-29T18:56:15;19.70;99.90
18690;DHT22;9782;52.930;15.562;2023-07-29T18:58:42;19.70;99.90
18690;DHT22;9782;52.930;15.562;2023-07-29T19:01:08;19.60;99.90
18690;DHT22;9782;52.930;15.562;2023-07-29T19:03:36;19.50;99.90
18690;DHT22;9782;52.930;15.562;2023-07-29T19:06:03;19.40;99.90
18690;DHT22;9782;52.930;15.562;2023-07-29T19:08:30;19.40;99.90
18690;DHT22;9782;52.930;15.562;2023-07-29T19:10:58;19.30;99.90
18690;DHT22;9782;52.930;15.562;2023-07-29T19:13:25;19.30;99.90
18690;DHT22;9782;52.930;15.562;2023-07-29T19:15:53;19.20;99.90
18690;DHT22;9782;52.930;15.562;2023-07-29T19:18:22;19.20;99.90
18690;DHT22;9782;52.930;15.562;2023-07-29T19:20:49;19.20;99.90
18690;DHT22;9782;52.930;15.562;2023-07-29T19:23:17;19.20;99.90
18690;DHT22;9782;52.930;15.562;2023-07-29T19:25:44;19.10;99.90
18690;DHT22;9782;52.930;15.562;2023-07-29T19:28:13;19.10;99.90
18690;DHT22;9782;52.930;15.562;2023-07-29T19:30:40;19.10;99.90
18690;DHT22;9782;52.930;15.562;2023-07-29T19:33:07;19.00;99.90
18690;DHT22;9782;52.930;15.562;2023-07-29T19:35:34;19.00;99.90
18690;DHT22;9782;52.930;15.562;2023-07-29T19:38:10;19.00;99.90
18690;DHT22;9782;52.930;15.562;2023-07-29T19:40:37;19.00;99.90
18690;DHT22;9782;52.930;15.562;2023-07-29T19:43:04;19.00;99.90
18690;DHT22;9782;52.930;15.562;2023-07-29T19:45:32;18.90;99.90
18690;DHT22;9782;52.930;15.562;2023-07-29T19:47:59;18.90;99.90
18690;DHT22;9782;52.930;15.562;2023-07-29T19:50:29;18.90;99.90
18690;DHT22;9782;52.930;15.562;2023-07-29T19:52:56;18.90;99.90
18690;DHT22;9782;52.930;15.562;2023-07-29T19:55:22;18.90;99.90
18690;DHT22;9782;52.930;15.562;2023-07-29T19:57:49;18.90;99.90
18690;DHT22;9782;52.930;15.562;2023-07-29T20:00:16;18.90;99.90
18690;DHT22;9782;52.930;15.562;2023-07-29T20:02:44;18.90;99.90
18690;DHT22;9782;52.930;15.562;2023-07-29T20:05:11;18.90;99.90
18690;DHT22;9782;52.930;15.562;2023-07-29T20:07:38;19.00;99.90
18690;DHT22;9782;52.930;15.562;2023-07-29T20:10:06;18.90;99.90
18690;DHT22;9782;52.930;15.562;2023-07-29T20:12:33;18.90;99.90
18690;DHT22;9782;52.930;15.562;2023-07-29T20:15:00;18.90;99.90
18690;DHT22;9782;52.930;15.562;2023-07-29T20:17:28;18.90;99.90
18690;DHT22;9782;52.930;15.562;2023-07-29T20:19:57;19.00;99.90
18690;DHT22;9782;52.930;15.562;2023-07-29T20:22:24;19.00;99.90
18690;DHT22;9782;52.930;15.562;2023-07-29T20:24:51;19.00;99.90
18690;DHT22;9782;52.930;15.562;2023-07-29T20:27:17;19.10;99.90
18690;DHT22;9782;52.930;15.562;2023-07-29T20:29:44;19.10;99.90
18690;DHT22;9782;52.930;15.562;2023-07-29T20:32:11;19.10;99.90
18690;DHT22;9782;52.930;15.562;2023-07-29T20:34:38;19.20;99.90
18690;DHT22;9782;52.930;15.562;2023-07-29T20:37:06;19.20;99.90
18690;DHT22;9782;52.930;15.562;2023-07-29T20:39:33;19.20;99.90
18690;DHT22;9782;52.930;15.562;2023-07-29T20:42:00;19.20;99.90
18690;DHT22;9782;52.930;15.562;2023-07-29T20:44:28;19.30;99.90
18690;DHT22;9782;52.930;15.562;2023-07-29T20:46:55;19.30;99.90
18690;DHT22;9782;52.930;15.562;2023-07-29T20:49:22;19.40;99.90
18690;DHT22;9782;52.930;15.562;2023-07-29T20:51:49;19.50;99.90
18690;DHT22;9782;52.930;15.562;2023-07-29T20:54:17;19.50;99.90
18690;DHT22;9782;52.930;15.562;2023-07-29T20:56:44;19.50;99.90
18690;DHT22;9782;52.930;15.562;2023-07-29T20:59:10;19.60;99.90
18690;DHT22;9782;52.930;15.562;2023-07-29T21:01:37;19.60;99.90
18690;DHT22;9782;52.930;15.562;2023-07-29T21:04:04;19.60;99.90
18690;DHT22;9782;52.930;15.562;2023-07-29T21:06:31;19.70;99.90
18690;DHT22;9782;52.930;15.562;2023-07-29T21:08:58;19.70;99.90
18690;DHT22;9782;52.930;15.562;2023-07-29T21:11:26;19.70;99.90
18690;DHT22;9782;52.930;15.562;2023-07-29T21:13:53;19.70;99.90
18690;DHT22;9782;52.930;15.562;2023-07-29T21:16:20;19.70;99.90
18690;DHT22;9782;52.930;15.562;2023-07-29T21:18:47;19.70;99.90
18690;DHT22;9782;52.930;15.562;2023-07-29T21:21:14;19.80;99.90
18690;DHT22;9782;52.930;15.562;2023-07-29T21:23:41;19.80;99.90
18690;DHT22;9782;52.930;15.562;2023-07-29T21:26:08;19.80;99.90
18690;DHT22;9782;52.930;15.562;2023-07-29T21:28:36;19.80;99.90
18690;DHT22;9782;52.930;15.562;2023-07-29T21:31:03;19.80;99.90
18690;DHT22;9782;52.930;15.562;2023-07-29T21:33:30;19.80;99.90
18690;DHT22;9782;52.930;15.562;2023-07-29T21:35:59;19.80;99.90
18690;DHT22;9782;52.930;15.562;2023-07-29T21:38:25;19.70;99.90
18690;DHT22;9782;52.930;15.562;2023-07-29T21:40:52;19.70;99.90
18690;DHT22;9782;52.930;15.562;2023-07-29T21:43:19;19.70;99.90
18690;DHT22;9782;52.930;15.562;2023-07-29T21:45:47;19.70;99.90
18690;DHT22;9782;52.930;15.562;2023-07-29T21:48:14;19.70;99.90
18690;DHT22;9782;52.930;15.562;2023-07-29T21:50:41;19.70;99.90
18690;DHT22;9782;52.930;15.562;2023-07-29T21:53:08;19.70;99.90
18690;DHT22;9782;52.930;15.562;2023-07-29T21:55:38;19.70;99.90
18690;DHT22;9782;52.930;15.562;2023-07-29T21:58:05;19.80;99.90
18690;DHT22;9782;52.930;15.562;2023-07-29T22:00:32;19.80;99.90
18690;DHT22;9782;52.930;15.562;2023-07-29T22:03:01;19.80;99.90
18690;DHT22;9782;52.930;15.562;2023-07-29T22:05:28;19.80;99.90
18690;DHT22;9782;52.930;15.562;2023-07-29T22:07:54;19.80;99.90
18690;DHT22;9782;52.930;15.562;2023-07-29T22:10:21;19.80;99.90
18690;DHT22;9782;52.930;15.562;2023-07-29T22:12:48;19.90;99.90
18690;DHT22;9782;52.930;15.562;2023-07-29T22:15:15;19.80;99.90
18690;DHT22;9782;52.930;15.562;2023-07-29T22:17:42;19.80;99.90
18690;DHT22;9782;52.930;15.562;2023-07-29T22:20:11;19.80;99.90
18690;DHT22;9782;52.930;15.562;2023-07-29T22:22:38;19.80;99.90
18690;DHT22;9782;52.930;15.562;2023-07-29T22:25:06;19.80;99.90
18690;DHT22;9782;52.930;15.562;2023-07-29T22:27:33;19.80;99.90
18690;DHT22;9782;52.930;15.562;2023-07-29T22:30:00;19.80;99.90
18690;DHT22;9782;52.930;15.562;2023-07-29T22:32:27;19.80;99.90
18690;DHT22;9782;52.930;15.562;2023-07-29T22:34:53;19.80;99.90
18690;DHT22;9782;52.930;15.562;2023-07-29T22:37:21;19.80;99.90
18690;DHT22;9782;52.930;15.562;2023-07-29T22:39:48;19.90;99.90
18690;DHT22;9782;52.930;15.562;2023-07-29T22:42:15;19.90;99.90
18690;DHT22;9782;52.930;15.562;2023-07-29T22:44:42;19.90;99.90
18690;DHT22;9782;52.930;15.562;2023-07-29T22:47:09;19.90;99.90
18690;DHT22;9782;52.930;15.562;2023-07-29T22:49:36;19.90;99.90
18690;DHT22;9782;52.930;15.562;2023-07-29T22:52:05;19.90;99.90
18690;DHT22;9782;52.930;15.562;2023-07-29T22:54:33;20.00;99.90
18690;DHT22;9782;52.930;15.562;2023-07-29T23:00:28;19.90;99.90
18690;DHT22;9782;52.930;15.562;2023-07-29T23:06:31;19.80;99.90
18690;DHT22;9782;52.930;15.562;2023-07-29T23:12:57;19.70;99.90
18690;DHT22;9782;52.930;15.562;2023-07-29T23:15:59;19.60;99.90
18690;DHT22;9782;52.930;15.562;2023-07-29T23:18:43;19.50;99.90
18690;DHT22;9782;52.930;15.562;2023-07-29T23:21:27;19.40;99.90
18690;DHT22;9782;52.930;15.562;2023-07-29T23:24:05;19.30;99.90
18690;DHT22;9782;52.930;15.562;2023-07-29T23:27:23;19.20;99.90
18690;DHT22;9782;52.930;15.562;2023-07-29T23:30:04;19.00;99.90
18690;DHT22;9782;52.930;15.562;2023-07-29T23:32:55;18.90;99.90
18690;DHT22;9782;52.930;15.562;2023-07-29T23:35:33;18.80;99.90
18690;DHT22;9782;52.930;15.562;2023-07-29T23:38:35;18.70;99.90
18690;DHT22;9782;52.930;15.562;2023-07-29T23:45:11;18.40;99.90
18690;DHT22;9782;52.930;15.562;2023-07-29T23:48:08;18.40;99.90
18690;DHT22;9782;52.930;15.562;2023-07-29T23:50:57;18.30;99.90
18690;DHT22;9782;52.930;15.562;2023-07-29T23:54:04;18.20;99.90
18690;DHT22;9782;52.930;15.562;2023-07-29T23:56:38;18.20;99.90
18690;DHT22;9782;52.930;15.562;2023-07-29T23:59:36;18.10;99.90
